Time;durP1;ratioP1;P1;durP2;ratioP2;P2;SDS_P1;SDS_P2;PMS_P1;PMS_P2;Temp;Humidity;BMP_temperature;BMP_pressure;BME280_temperature;BME280_humidity;BME280_pressure;Samples;Min_cycle;Max_cycle;Signal;HPM_P1;HPM_P2
2022/05/24 00:01:19;;;;;;;6.50;5.00;;;;;;;;;;5081938;28;20120;-74
2022/05/24 00:03:45;;;;;;;7.13;5.35;;;;;;;;;;5111832;28;20049;-76
2022/05/24 00:06:12;;;;;;;7.20;4.75;;;;;;;;;;5081799;27;20103;-76
2022/05/24 00:08:38;;;;;;;7.78;4.82;;;;;;;;;;5118635;27;20035;-74
2022/05/24 00:11:05;;;;;;;6.82;4.63;;;;;;;;;;5103402;28;20071;-75
2022/05/24 00:13:32;;;;;;;9.77;4.35;;;;;;;;;;5118068;27;20043;-75
2022/05/24 00:15:58;;;;;;;10.32;4.03;;;;;;;;;;5119034;27;20036;-76
2022/05/24 00:18:26;;;;;;;7.13;4.53;;;;;;;;;;5100502;27;20084;-76
2022/05/24 00:20:54;;;;;;;6.55;4.28;;;;;;;;;;5076406;28;20036;-75
2022/05/24 00:23:22;;;;;;;6.93;4.53;;;;;;;;;;5110705;28;20039;-75
2022/05/24 00:25:49;;;;;;;7.68;4.40;;;;;;;;;;5092784;28;20050;-75
2022/05/24 00:28:17;;;;;;;6.22;4.55;;;;;;;;;;5096292;28;20036;-76
2022/05/24 00:30:44;;;;;;;6.68;4.38;;;;;;;;;;5113482;27;20126;-76
2022/05/24 00:33:11;;;;;;;9.60;4.55;;;;;;;;;;5110116;28;20477;-75
2022/05/24 00:35:37;;;;;;;7.95;3.53;;;;;;;;;;5111193;27;20344;-75
2022/05/24 00:38:04;;;;;;;8.55;4.35;;;;;;;;;;5110540;28;20479;-76
2022/05/24 00:40:43;;;;;;;8.07;4.43;;;;;;;;;;5116214;27;20067;-76
2022/05/24 00:43:13;;;;;;;9.38;4.05;;;;;;;;;;5114208;27;20071;-76
2022/05/24 00:45:41;;;;;;;6.97;4.55;;;;;;;;;;5110511;27;20086;-76
2022/05/24 00:48:09;;;;;;;4.97;3.97;;;;;;;;;;5096600;27;20488;-76
2022/05/24 00:50:41;;;;;;;6.55;4.65;;;;;;;;;;5117203;27;20535;-76
2022/05/24 00:53:19;;;;;;;9.67;5.83;;;;;;;;;;5101860;27;20043;-76
2022/05/24 00:55:48;;;;;;;6.82;4.50;;;;;;;;;;5117721;27;20222;-77
2022/05/24 00:58:24;;;;;;;6.82;4.35;;;;;;;;;;5088656;28;20055;-76
2022/05/24 01:00:51;;;;;;;7.47;4.95;;;;;;;;;;5112768;27;20131;-76
2022/05/24 01:03:17;;;;;;;5.72;4.25;;;;;;;;;;5073437;28;20097;-75
2022/05/24 01:05:44;;;;;;;9.20;5.20;;;;;;;;;;5105236;28;20442;-76
2022/05/24 01:08:10;;;;;;;8.25;5.07;;;;;;;;;;5105101;28;20385;-76
2022/05/24 01:10:49;;;;;;;9.70;5.32;;;;;;;;;;5117336;27;20512;-75
2022/05/24 01:13:17;;;;;;;9.93;6.43;;;;;;;;;;5084308;28;20506;-75
2022/05/24 01:15:44;;;;;;;10.40;6.43;;;;;;;;;;5108855;28;20043;-76
2022/05/24 01:18:11;;;;;;;7.50;5.60;;;;;;;;;;5108459;28;20054;-76
2022/05/24 01:20:38;;;;;;;9.43;6.57;;;;;;;;;;5110969;27;20611;-76
2022/05/24 01:23:13;;;;;;;9.63;7.22;;;;;;;;;;5118599;27;20123;-76
2022/05/24 01:25:39;;;;;;;10.55;6.20;;;;;;;;;;5110421;28;20130;-75
2022/05/24 01:28:09;;;;;;;8.73;6.45;;;;;;;;;;5117282;27;20047;-74
2022/05/24 01:30:35;;;;;;;10.23;6.70;;;;;;;;;;5114373;27;20596;-76
2022/05/24 01:38:33;;;;;;;9.57;6.95;;;;;;;;;;5112080;27;20050;-76
2022/05/24 01:40:59;;;;;;;10.07;7.63;;;;;;;;;;5110352;28;20067;-76
2022/05/24 01:43:26;;;;;;;9.80;7.15;;;;;;;;;;5108831;28;20046;-75
2022/05/24 01:45:59;;;;;;;8.43;6.20;;;;;;;;;;5105500;28;20123;-75
2022/05/24 01:48:32;;;;;;;10.20;6.60;;;;;;;;;;5092928;28;20393;-76
2022/05/24 01:51:02;;;;;;;8.65;5.57;;;;;;;;;;5089774;28;20040;-75
2022/05/24 01:53:31;;;;;;;11.32;6.72;;;;;;;;;;5099302;28;20036;-76
2022/05/24 01:55:59;;;;;;;10.82;6.85;;;;;;;;;;5090053;28;20060;-75
2022/05/24 01:58:26;;;;;;;10.38;7.60;;;;;;;;;;5109539;27;20085;-75
2022/05/24 02:00:56;;;;;;;10.38;7.68;;;;;;;;;;5090261;28;20055;-76
2022/05/24 02:03:23;;;;;;;11.80;7.93;;;;;;;;;;5110731;28;20083;-75
2022/05/24 02:05:50;;;;;;;11.80;8.90;;;;;;;;;;5108827;28;20121;-76
2022/05/24 02:08:17;;;;;;;14.02;9.70;;;;;;;;;;5097568;27;20039;-75
2022/05/24 02:10:48;;;;;;;15.38;10.43;;;;;;;;;;5096263;28;20040;-75
2022/05/24 02:13:18;;;;;;;19.63;10.65;;;;;;;;;;5106388;28;20055;-76
2022/05/24 02:15:47;;;;;;;20.50;11.65;;;;;;;;;;5109959;27;20055;-75
2022/05/24 02:18:18;;;;;;;15.80;10.95;;;;;;;;;;5105511;28;20459;-76
2022/05/24 02:20:45;;;;;;;18.42;13.18;;;;;;;;;;5108785;28;20397;-76
2022/05/24 02:23:15;;;;;;;21.00;14.73;;;;;;;;;;5102988;28;20082;-75
2022/05/24 02:25:44;;;;;;;24.55;14.95;;;;;;;;;;5117523;27;20421;-75
2022/05/24 02:28:11;;;;;;;23.75;15.15;;;;;;;;;;5106967;27;20035;-75
2022/05/24 02:30:39;;;;;;;27.90;18.30;;;;;;;;;;5102220;28;20486;-76
2022/05/24 02:33:06;;;;;;;21.67;15.38;;;;;;;;;;5108533;28;20203;-75
2022/05/24 02:35:32;;;;;;;30.30;18.83;;;;;;;;;;5108139;28;20047;-76
2022/05/24 02:37:58;;;;;;;24.85;16.88;;;;;;;;;;5108830;28;20048;-75
2022/05/24 02:43:09;;;;;;;27.42;18.98;;;;;;;;;;5086035;28;20055;-76
2022/05/24 02:45:35;;;;;;;25.55;17.42;;;;;;;;;;5107479;28;20051;-76
2022/05/24 02:48:02;;;;;;;24.73;16.80;;;;;;;;;;5093829;28;20147;-76
2022/05/24 02:50:28;;;;;;;26.45;18.08;;;;;;;;;;5070843;28;20044;-76
2022/05/24 02:52:55;;;;;;;23.50;16.92;;;;;;;;;;5100067;28;20036;-76
2022/05/24 02:55:22;;;;;;;22.67;16.10;;;;;;;;;;5098637;28;20505;-76
2022/05/24 02:57:48;;;;;;;23.45;15.27;;;;;;;;;;5109468;28;20374;-76
2022/05/24 03:00:16;;;;;;;22.23;16.55;;;;;;;;;;5107788;28;20477;-74
2022/05/24 03:02:43;;;;;;;23.25;15.98;;;;;;;;;;5085598;28;20055;-76
2022/05/24 03:05:12;;;;;;;25.25;15.73;;;;;;;;;;5057830;28;20047;-76
2022/05/24 03:10:24;;;;;;;21.80;16.25;;;;;;;;;;5107853;28;20043;-76
2022/05/24 03:15:40;;;;;;;25.88;17.90;;;;;;;;;;5109029;28;20051;-76
2022/05/24 03:18:06;;;;;;;26.23;17.40;;;;;;;;;;5102914;28;20043;-76
2022/05/24 03:20:33;;;;;;;25.55;17.33;;;;;;;;;;5088900;28;20501;-75
2022/05/24 03:23:00;;;;;;;20.85;15.27;;;;;;;;;;5081116;28;20032;-76
2022/05/24 03:25:27;;;;;;;22.17;15.63;;;;;;;;;;5121468;27;20040;-76
2022/05/24 03:27:54;;;;;;;23.30;16.55;;;;;;;;;;5121290;27;20051;-76
2022/05/24 03:30:20;;;;;;;19.67;14.07;;;;;;;;;;5103188;27;20036;-76
2022/05/24 03:32:46;;;;;;;22.77;15.18;;;;;;;;;;5115202;27;20373;-75
2022/05/24 03:35:13;;;;;;;23.60;14.45;;;;;;;;;;5080328;28;20060;-75
2022/05/24 03:37:41;;;;;;;17.85;13.55;;;;;;;;;;5090540;28;20043;-76
2022/05/24 03:40:09;;;;;;;18.05;12.63;;;;;;;;;;5081228;27;20038;-76
2022/05/24 03:42:36;;;;;;;17.52;12.43;;;;;;;;;;5101336;27;20036;-76
2022/05/24 03:45:04;;;;;;;20.73;11.98;;;;;;;;;;5086581;28;20071;-76
2022/05/24 03:47:30;;;;;;;15.15;11.60;;;;;;;;;;5094576;28;20118;-76
2022/05/24 03:49:57;;;;;;;14.93;11.07;;;;;;;;;;5093547;27;20047;-76
2022/05/24 03:52:23;;;;;;;16.38;10.10;;;;;;;;;;5073859;27;20129;-75
2022/05/24 03:54:50;;;;;;;15.27;9.80;;;;;;;;;;5100574;27;20036;-75
2022/05/24 04:00:04;;;;;;;12.57;9.77;;;;;;;;;;5080924;27;20044;-76
2022/05/24 04:02:30;;;;;;;10.38;7.43;;;;;;;;;;5093808;28;20499;-75
2022/05/24 04:04:56;;;;;;;12.07;7.63;;;;;;;;;;5096370;27;20044;-76
2022/05/24 04:07:23;;;;;;;10.60;7.47;;;;;;;;;;5097634;27;20035;-74
2022/05/24 04:09:56;;;;;;;10.77;7.00;;;;;;;;;;5097238;28;20028;-76
2022/05/24 04:12:22;;;;;;;9.77;6.45;;;;;;;;;;5097906;27;20039;-76
2022/05/24 04:14:51;;;;;;;9.18;6.47;;;;;;;;;;5095219;27;20044;-75
2022/05/24 04:17:17;;;;;;;13.05;6.75;;;;;;;;;;5063423;28;20294;-76
2022/05/24 04:19:44;;;;;;;8.55;6.32;;;;;;;;;;5093153;27;20043;-76
2022/05/24 04:22:11;;;;;;;10.55;6.47;;;;;;;;;;5113114;27;20035;-76
2022/05/24 04:24:37;;;;;;;9.95;7.22;;;;;;;;;;5073716;28;20265;-75
2022/05/24 04:27:07;;;;;;;10.57;5.63;;;;;;;;;;5099109;27;20493;-76
2022/05/24 04:29:34;;;;;;;10.32;7.28;;;;;;;;;;5097799;27;20048;-75
2022/05/24 04:32:01;;;;;;;8.75;5.65;;;;;;;;;;5073094;28;20043;-75
2022/05/24 04:34:29;;;;;;;14.27;6.88;;;;;;;;;;5101163;27;20088;-75
2022/05/24 04:36:56;;;;;;;8.10;5.43;;;;;;;;;;5076451;28;20044;-76
2022/05/24 04:39:25;;;;;;;9.15;5.72;;;;;;;;;;5095519;27;20039;-75
2022/05/24 04:44:37;;;;;;;8.43;5.55;;;;;;;;;;5086492;28;20047;-75
2022/05/24 04:47:10;;;;;;;14.50;6.53;;;;;;;;;;5098392;27;20089;-76
2022/05/24 04:49:37;;;;;;;8.43;5.70;;;;;;;;;;5077275;28;20051;-75
2022/05/24 04:52:05;;;;;;;12.40;5.85;;;;;;;;;;5088211;28;20077;-76
2022/05/24 04:54:31;;;;;;;11.18;6.65;;;;;;;;;;5100147;27;20039;-75
2022/05/24 04:56:58;;;;;;;10.70;5.60;;;;;;;;;;5107255;27;20613;-76
2022/05/24 04:59:24;;;;;;;10.93;8.05;;;;;;;;;;5080775;28;20028;-75
2022/05/24 05:01:51;;;;;;;9.40;6.13;;;;;;;;;;5104995;27;20039;-75
2022/05/24 05:04:19;;;;;;;11.77;7.43;;;;;;;;;;5102517;27;20047;-75
2022/05/24 05:06:46;;;;;;;15.10;8.18;;;;;;;;;;5096852;27;20050;-76
2022/05/24 05:09:12;;;;;;;13.45;6.70;;;;;;;;;;5101824;27;20035;-75
2022/05/24 05:11:39;;;;;;;19.13;9.10;;;;;;;;;;5101193;27;20392;-75
2022/05/24 05:14:09;;;;;;;11.48;7.28;;;;;;;;;;5091952;28;20074;-75
2022/05/24 05:16:36;;;;;;;13.75;7.68;;;;;;;;;;5094471;27;20035;-76
2022/05/24 05:19:03;;;;;;;13.10;8.05;;;;;;;;;;5099827;27;20035;-76
2022/05/24 05:21:31;;;;;;;12.23;9.15;;;;;;;;;;5112122;27;20039;-75
2022/05/24 05:23:58;;;;;;;11.88;8.63;;;;;;;;;;5107208;27;20536;-76
2022/05/24 05:26:33;;;;;;;12.75;9.68;;;;;;;;;;5083203;27;20043;-75
2022/05/24 05:29:00;;;;;;;14.90;9.23;;;;;;;;;;5108220;28;20101;-76
2022/05/24 05:31:26;;;;;;;14.27;9.30;;;;;;;;;;5110084;28;20035;-75
2022/05/24 05:33:53;;;;;;;16.60;10.27;;;;;;;;;;5113264;27;20334;-76
2022/05/24 05:36:20;;;;;;;16.08;10.27;;;;;;;;;;5111870;27;20046;-76
2022/05/24 05:38:47;;;;;;;24.85;10.75;;;;;;;;;;5097131;27;20102;-75
2022/05/24 05:41:15;;;;;;;13.68;10.15;;;;;;;;;;5116530;27;20046;-75
2022/05/24 05:43:41;;;;;;;15.38;10.82;;;;;;;;;;5090152;28;20043;-75
2022/05/24 05:46:08;;;;;;;16.67;10.10;;;;;;;;;;5097008;28;20047;-76
2022/05/24 05:48:35;;;;;;;15.50;10.30;;;;;;;;;;5071132;28;20089;-76
2022/05/24 05:51:02;;;;;;;14.50;10.98;;;;;;;;;;5084829;28;20070;-76
2022/05/24 05:53:28;;;;;;;18.15;13.30;;;;;;;;;;5110066;28;20035;-75
2022/05/24 05:55:55;;;;;;;19.88;11.35;;;;;;;;;;5104455;28;20047;-75
2022/05/24 05:58:21;;;;;;;21.65;12.55;;;;;;;;;;5071014;28;20120;-76
2022/05/24 06:00:48;;;;;;;16.05;11.65;;;;;;;;;;5072929;28;20565;-75
2022/05/24 06:03:15;;;;;;;20.08;12.85;;;;;;;;;;5105030;27;20051;-76
2022/05/24 06:05:41;;;;;;;20.48;12.07;;;;;;;;;;5072068;28;20052;-77
2022/05/24 06:08:08;;;;;;;14.05;10.30;;;;;;;;;;5105898;27;20042;-76
2022/05/24 06:10:36;;;;;;;19.20;11.73;;;;;;;;;;5073305;28;20047;-76
2022/05/24 06:13:03;;;;;;;16.30;9.05;;;;;;;;;;5109114;27;20099;-77
2022/05/24 06:15:32;;;;;;;16.17;10.45;;;;;;;;;;5103013;27;20032;-76
2022/05/24 06:17:59;;;;;;;15.98;10.10;;;;;;;;;;5096788;28;20426;-77
2022/05/24 06:20:27;;;;;;;14.27;7.35;;;;;;;;;;5098013;28;20043;-76
2022/05/24 06:22:55;;;;;;;10.32;6.70;;;;;;;;;;5114389;27;20262;-76
2022/05/24 06:25:25;;;;;;;7.65;5.70;;;;;;;;;;5077392;28;20039;-77
2022/05/24 06:27:52;;;;;;;7.68;5.32;;;;;;;;;;5110524;28;20115;-77
2022/05/24 06:30:20;;;;;;;7.82;4.55;;;;;;;;;;5112409;27;20043;-77
2022/05/24 06:32:50;;;;;;;6.90;3.83;;;;;;;;;;5112526;27;20382;-76
2022/05/24 06:35:19;;;;;;;5.70;4.88;;;;;;;;;;5118087;27;20050;-77
2022/05/24 06:37:48;;;;;;;9.25;4.32;;;;;;;;;;5111364;27;20386;-77
2022/05/24 06:40:15;;;;;;;7.88;3.90;;;;;;;;;;5111883;27;20035;-77
2022/05/24 06:42:42;;;;;;;6.78;3.90;;;;;;;;;;5117215;27;20070;-77
2022/05/24 06:45:09;;;;;;;7.68;4.30;;;;;;;;;;5046035;28;20048;-77
2022/05/24 06:47:35;;;;;;;7.95;3.90;;;;;;;;;;5093356;28;20035;-77
2022/05/24 06:50:01;;;;;;;6.55;3.90;;;;;;;;;;5110399;28;20277;-77
2022/05/24 06:52:28;;;;;;;8.60;4.35;;;;;;;;;;5118908;27;20083;-77
2022/05/24 06:54:54;;;;;;;8.15;4.20;;;;;;;;;;5071310;28;20077;-77
2022/05/24 06:57:21;;;;;;;5.25;3.85;;;;;;;;;;5111423;28;20046;-77
2022/05/24 07:02:34;;;;;;;5.43;3.55;;;;;;;;;;5115990;28;20134;-77
2022/05/24 07:05:17;;;;;;;4.80;4.25;;;;;;;;;;5111491;27;20039;-76
2022/05/24 07:07:43;;;;;;;13.27;4.87;;;;;;;;;;5106194;27;20038;-76
2022/05/24 07:10:12;;;;;;;7.88;5.05;;;;;;;;;;5098284;28;20426;-75
2022/05/24 07:12:41;;;;;;;13.18;4.97;;;;;;;;;;5123055;27;20035;-75
2022/05/24 07:15:08;;;;;;;12.18;5.22;;;;;;;;;;5110518;27;20050;-75
2022/05/24 07:17:34;;;;;;;6.45;5.28;;;;;;;;;;5122089;27;20122;-75
2022/05/24 07:20:01;;;;;;;11.98;6.47;;;;;;;;;;5121818;27;20070;-75
2022/05/24 07:22:27;;;;;;;9.43;5.38;;;;;;;;;;5113213;27;20102;-75
2022/05/24 07:24:53;;;;;;;8.70;5.53;;;;;;;;;;5121116;27;20046;-76
2022/05/24 07:27:21;;;;;;;8.63;5.20;;;;;;;;;;5061762;28;20070;-76
2022/05/24 07:29:53;;;;;;;12.02;6.30;;;;;;;;;;5096529;28;20035;-75
2022/05/24 07:32:20;;;;;;;11.25;6.15;;;;;;;;;;5080228;27;20032;-74
2022/05/24 07:34:46;;;;;;;10.13;5.90;;;;;;;;;;5128989;27;20079;-75
2022/05/24 07:37:14;;;;;;;9.07;5.55;;;;;;;;;;5098160;28;20043;-75
2022/05/24 07:39:41;;;;;;;9.05;5.65;;;;;;;;;;5113476;28;20043;-75
2022/05/24 07:47:37;;;;;;;9.93;5.18;;;;;;;;;;5114989;28;20044;-76
2022/05/24 07:50:05;;;;;;;11.32;5.80;;;;;;;;;;5097017;28;20035;-75
2022/05/24 07:52:31;;;;;;;11.32;5.75;;;;;;;;;;5114265;27;20501;-76
2022/05/24 07:54:57;;;;;;;9.20;5.18;;;;;;;;;;5114177;28;20345;-76
2022/05/24 07:57:23;;;;;;;11.65;6.30;;;;;;;;;;5099789;28;20501;-75
2022/05/24 07:59:50;;;;;;;8.95;5.10;;;;;;;;;;5077489;28;20107;-75
2022/05/24 08:02:18;;;;;;;13.85;6.05;;;;;;;;;;5119407;27;20140;-75
2022/05/24 08:04:45;;;;;;;7.40;5.55;;;;;;;;;;5122672;27;20051;-75
2022/05/24 08:07:12;;;;;;;11.07;5.55;;;;;;;;;;5104768;28;20055;-75
2022/05/24 08:09:39;;;;;;;6.95;4.82;;;;;;;;;;5087994;28;20152;-76
2022/05/24 08:12:06;;;;;;;6.38;4.63;;;;;;;;;;5115519;27;20051;-75
2022/05/24 08:14:32;;;;;;;9.98;5.43;;;;;;;;;;5090863;28;20130;-76
2022/05/24 08:16:58;;;;;;;8.38;5.00;;;;;;;;;;5112447;28;20024;-76
2022/05/24 08:19:25;;;;;;;6.35;4.55;;;;;;;;;;5119326;27;20055;-76
2022/05/24 08:21:51;;;;;;;10.63;5.15;;;;;;;;;;5074068;28;20408;-76
2022/05/24 08:24:18;;;;;;;9.68;5.00;;;;;;;;;;5116534;27;20515;-76
2022/05/24 08:26:44;;;;;;;7.95;5.55;;;;;;;;;;5118594;27;20059;-76
2022/05/24 08:29:10;;;;;;;5.35;4.10;;;;;;;;;;5090060;28;20657;-76
2022/05/24 08:31:37;;;;;;;12.50;4.30;;;;;;;;;;5102891;28;20094;-76
2022/05/24 08:34:03;;;;;;;7.72;4.47;;;;;;;;;;5093615;28;20044;-75
2022/05/24 08:36:30;;;;;;;6.18;4.07;;;;;;;;;;5110581;28;20039;-76
2022/05/24 08:38:56;;;;;;;9.95;4.75;;;;;;;;;;5111625;28;20370;-75
2022/05/24 08:41:46;;;;;;;8.95;4.93;;;;;;;;;;5073167;27;20087;-75
2022/05/24 08:49:54;;;;;;;7.97;4.60;;;;;;;;;;5112891;27;20391;-76
2022/05/24 08:52:21;;;;;;;8.98;4.45;;;;;;;;;;5076324;28;20048;-76
2022/05/24 08:54:48;;;;;;;7.07;5.03;;;;;;;;;;5126997;27;20043;-77
2022/05/24 08:57:17;;;;;;;6.85;5.05;;;;;;;;;;5095422;27;20035;-76
2022/05/24 08:59:56;;;;;;;7.63;4.70;;;;;;;;;;5112290;27;20044;-77
2022/05/24 09:02:23;;;;;;;7.40;4.15;;;;;;;;;;5093584;28;20062;-77
2022/05/24 09:04:50;;;;;;;7.22;4.32;;;;;;;;;;5078314;28;20039;-76
2022/05/24 09:07:32;;;;;;;9.82;5.40;;;;;;;;;;5110563;28;20438;-76
2022/05/24 09:10:05;;;;;;;7.70;5.30;;;;;;;;;;5073933;28;20046;-76
2022/05/24 09:12:31;;;;;;;8.77;5.65;;;;;;;;;;5102319;27;20046;-76
2022/05/24 09:15:01;;;;;;;6.18;4.72;;;;;;;;;;5096645;27;20058;-76
2022/05/24 09:17:48;;;;;;;7.32;4.82;;;;;;;;;;5092908;28;20028;-76
2022/05/24 09:20:31;;;;;;;10.13;5.10;;;;;;;;;;5093495;28;20103;-77
2022/05/24 09:23:21;;;;;;;11.60;4.97;;;;;;;;;;5088340;28;20051;-76
2022/05/24 09:25:55;;;;;;;6.43;4.75;;;;;;;;;;5096842;28;20412;-77
2022/05/24 09:28:41;;;;;;;5.30;4.22;;;;;;;;;;5118698;27;20032;-77
2022/05/24 09:31:08;;;;;;;6.55;4.45;;;;;;;;;;5102989;28;20050;-76
2022/05/24 09:33:39;;;;;;;9.10;4.68;;;;;;;;;;5116748;27;20086;-77
2022/05/24 09:36:06;;;;;;;6.88;3.80;;;;;;;;;;5113897;27;20039;-77
2022/05/24 09:38:37;;;;;;;4.88;3.88;;;;;;;;;;5118192;27;20024;-77
2022/05/24 09:41:17;;;;;;;9.73;4.30;;;;;;;;;;5114312;27;20049;-76
2022/05/24 09:43:57;;;;;;;6.30;4.40;;;;;;;;;;5091657;28;20043;-77
2022/05/24 09:46:24;;;;;;;6.93;4.20;;;;;;;;;;5103977;28;20144;-77
2022/05/24 09:48:56;;;;;;;4.45;3.83;;;;;;;;;;5093975;27;20481;-76
2022/05/24 09:51:28;;;;;;;7.90;5.00;;;;;;;;;;5075890;28;20536;-77
2022/05/24 09:53:55;;;;;;;6.97;3.92;;;;;;;;;;5108854;28;20079;-76
2022/05/24 09:56:30;;;;;;;8.43;4.18;;;;;;;;;;5072534;28;20486;-76
2022/05/24 09:59:02;;;;;;;7.20;4.68;;;;;;;;;;5101552;28;20035;-77
2022/05/24 10:01:37;;;;;;;8.43;3.47;;;;;;;;;;5090420;28;20087;-76
2022/05/24 10:04:11;;;;;;;5.85;3.55;;;;;;;;;;5105812;28;20047;-77
2022/05/24 10:06:38;;;;;;;6.82;3.22;;;;;;;;;;5106487;28;20050;-76
2022/05/24 10:09:12;;;;;;;5.78;3.20;;;;;;;;;;5109177;28;20043;-76
2022/05/24 10:11:43;;;;;;;6.35;3.25;;;;;;;;;;5096262;27;20127;-76
2022/05/24 10:14:29;;;;;;;7.85;3.10;;;;;;;;;;5102219;27;20099;-77
2022/05/24 10:17:22;;;;;;;7.07;3.03;;;;;;;;;;5081770;28;20066;-77
2022/05/24 10:19:52;;;;;;;7.38;3.67;;;;;;;;;;5084253;28;20051;-76
2022/05/24 10:22:37;;;;;;;5.07;3.90;;;;;;;;;;5092728;28;20431;-77
2022/05/24 10:25:08;;;;;;;5.90;3.28;;;;;;;;;;5110499;27;20126;-77
2022/05/24 10:27:46;;;;;;;5.32;2.88;;;;;;;;;;5107994;28;20036;-77
2022/05/24 10:30:20;;;;;;;7.60;3.33;;;;;;;;;;5106831;27;20032;-77
2022/05/24 10:38:51;;;;;;;7.68;3.47;;;;;;;;;;5108037;27;20118;-77
2022/05/24 10:41:25;;;;;;;6.80;3.33;;;;;;;;;;5099763;27;20623;-77
2022/05/24 10:43:57;;;;;;;5.00;3.67;;;;;;;;;;5113346;27;20093;-76
2022/05/24 10:46:31;;;;;;;7.35;4.20;;;;;;;;;;5100196;28;20038;-76
2022/05/24 10:49:16;;;;;;;5.65;2.83;;;;;;;;;;5079861;28;20040;-77
2022/05/24 10:51:48;;;;;;;3.67;2.10;;;;;;;;;;5104773;28;20071;-76
2022/05/24 10:54:33;;;;;;;2.25;1.15;;;;;;;;;;5107655;28;20566;-76
2022/05/24 10:57:02;;;;;;;1.50;0.98;;;;;;;;;;5106635;28;20044;-76
2022/05/24 10:59:42;;;;;;;2.22;1.17;;;;;;;;;;5090568;28;20043;-75
2022/05/24 11:02:24;;;;;;;2.60;1.27;;;;;;;;;;5110738;28;20059;-76
2022/05/24 11:04:56;;;;;;;2.63;1.70;;;;;;;;;;5087991;28;20054;-75
2022/05/24 11:07:24;;;;;;;3.60;1.73;;;;;;;;;;5103873;28;20549;-77
2022/05/24 11:10:15;;;;;;;3.83;1.55;;;;;;;;;;5068401;28;20039;-75
2022/05/24 11:12:50;;;;;;;4.55;2.40;;;;;;;;;;5096337;28;20130;-77
2022/05/24 11:15:19;;;;;;;2.70;1.58;;;;;;;;;;5080787;28;20086;-76
2022/05/24 11:17:46;;;;;;;4.15;1.73;;;;;;;;;;5090016;28;20566;-77
2022/05/24 11:20:21;;;;;;;5.57;1.90;;;;;;;;;;5097238;28;20032;-77
2022/05/24 11:22:53;;;;;;;3.90;1.70;;;;;;;;;;5043933;28;20039;-77
2022/05/24 11:25:27;;;;;;;4.45;2.00;;;;;;;;;;5110747;28;20050;-77
2022/05/24 11:27:54;;;;;;;3.40;1.13;;;;;;;;;;5112139;28;20047;-77
2022/05/24 11:30:26;;;;;;;4.20;1.48;;;;;;;;;;5109660;28;20109;-76
2022/05/24 11:32:53;;;;;;;;;;;;;;;;;;5108531;28;20047;-76
2022/05/24 11:35:19;;;;;;;4.75;2.35;;;;;;;;;;5106442;28;19931;-77
2022/05/24 11:37:58;;;;;;;3.67;2.20;;;;;;;;;;5085086;28;20043;-76
2022/05/24 11:40:32;;;;;;;4.45;2.20;;;;;;;;;;5080522;28;20536;-76
2022/05/24 11:43:02;;;;;;;5.28;2.17;;;;;;;;;;5088637;28;20485;-77
2022/05/24 11:45:29;;;;;;;4.57;1.88;;;;;;;;;;5108099;28;20047;-77
2022/05/24 11:47:57;;;;;;;3.88;2.47;;;;;;;;;;5102632;28;20040;-76
2022/05/24 11:50:36;;;;;;;6.45;3.10;;;;;;;;;;5073984;28;20044;-77
2022/05/24 11:53:07;;;;;;;5.43;2.35;;;;;;;;;;5106550;28;20438;-77
2022/05/24 11:55:52;;;;;;;4.07;2.05;;;;;;;;;;5109928;27;20132;-77
2022/05/24 11:58:32;;;;;;;4.72;2.40;;;;;;;;;;5075362;28;20203;-76
2022/05/24 12:01:05;;;;;;;8.25;2.05;;;;;;;;;;5104192;27;20093;-76
2022/05/24 12:09:18;;;;;;;7.22;2.28;;;;;;;;;;5095950;27;20044;-77
2022/05/24 12:11:45;;;;;;;5.78;2.22;;;;;;;;;;5098610;27;20382;-77
2022/05/24 12:14:34;;;;;;;7.85;2.00;;;;;;;;;;5121022;27;20122;-75
2022/05/24 12:17:00;;;;;;;6.88;2.78;;;;;;;;;;5104422;27;20042;-76
2022/05/24 12:19:30;;;;;;;5.28;2.42;;;;;;;;;;5103097;27;20073;-77
2022/05/24 12:22:01;;;;;;;5.22;2.15;;;;;;;;;;5118824;27;20035;-77
2022/05/24 12:24:37;;;;;;;10.75;2.35;;;;;;;;;;5102213;27;20042;-76
2022/05/24 12:27:16;;;;;;;3.55;1.40;;;;;;;;;;5119276;27;20043;-76
2022/05/24 12:29:44;;;;;;;5.72;1.20;;;;;;;;;;5092229;27;20517;-76
2022/05/24 12:32:13;;;;;;;4.20;1.45;;;;;;;;;;5114285;27;20066;-76
2022/05/24 12:34:43;;;;;;;3.40;2.03;;;;;;;;;;5117022;27;20383;-76
2022/05/24 12:37:31;;;;;;;2.67;1.10;;;;;;;;;;5086635;27;20114;-76
2022/05/24 12:40:09;;;;;;;4.30;1.55;;;;;;;;;;5092824;28;20036;-77
2022/05/24 12:42:41;;;;;;;3.70;1.92;;;;;;;;;;5097257;28;20047;-77
2022/05/24 12:45:08;;;;;;;2.15;1.10;;;;;;;;;;5109589;27;20039;-77
2022/05/24 12:47:35;;;;;;;3.30;1.10;;;;;;;;;;5087189;27;20089;-76
2022/05/24 12:50:04;;;;;;;3.88;1.60;;;;;;;;;;5084066;28;20405;-77
2022/05/24 12:52:33;;;;;;;2.70;1.42;;;;;;;;;;5096003;28;20108;-77
2022/05/24 12:55:05;;;;;;;3.15;1.83;;;;;;;;;;5084537;27;20119;-77
2022/05/24 12:57:39;;;;;;;6.07;1.95;;;;;;;;;;5106054;28;20031;-77
2022/05/24 13:00:10;;;;;;;4.00;1.80;;;;;;;;;;5109818;28;20426;-77
2022/05/24 13:02:41;;;;;;;4.78;1.67;;;;;;;;;;5110666;28;20047;-76
2022/05/24 13:05:07;;;;;;;5.90;1.95;;;;;;;;;;5113668;27;20055;-76
2022/05/24 13:07:37;;;;;;;4.28;1.95;;;;;;;;;;5097773;28;20047;-76
2022/05/24 13:10:07;;;;;;;7.30;2.53;;;;;;;;;;5075976;28;20043;-76
2022/05/24 13:12:34;;;;;;;5.30;1.80;;;;;;;;;;5097692;28;20047;-77
2022/05/24 13:15:02;;;;;;;3.40;1.80;;;;;;;;;;5079878;27;20035;-76
2022/05/24 13:17:30;;;;;;;4.75;2.22;;;;;;;;;;5110591;27;20039;-76
2022/05/24 13:20:24;;;;;;;6.28;1.80;;;;;;;;;;5102467;28;20082;-76
2022/05/24 13:22:56;;;;;;;3.15;1.50;;;;;;;;;;5103365;28;20040;-76
2022/05/24 13:25:29;;;;;;;4.53;2.08;;;;;;;;;;5075696;28;20038;-77
2022/05/24 13:28:01;;;;;;;4.63;1.85;;;;;;;;;;5088062;28;20038;-76
2022/05/24 13:33:34;;;;;;;7.28;1.95;;;;;;;;;;5109551;27;20039;-76
2022/05/24 13:36:16;;;;;;;4.70;2.53;;;;;;;;;;5092395;28;20044;-76
2022/05/24 13:38:47;;;;;;;2.83;2.15;;;;;;;;;;5095395;27;20107;-77
2022/05/24 13:41:25;;;;;;;4.15;2.00;;;;;;;;;;5104723;27;20064;-76
2022/05/24 13:44:05;;;;;;;7.75;2.70;;;;;;;;;;5113567;27;20483;-77
2022/05/24 13:46:46;;;;;;;3.40;2.40;;;;;;;;;;5104031;28;20097;-76
2022/05/24 13:49:25;;;;;;;5.93;3.00;;;;;;;;;;5092335;28;20674;-76
2022/05/24 13:51:52;;;;;;;4.90;3.25;;;;;;;;;;5098785;27;20075;-77
2022/05/24 13:54:33;;;;;;;7.07;3.33;;;;;;;;;;5119892;27;20092;-76
2022/05/24 13:57:00;;;;;;;2.72;1.75;;;;;;;;;;5107766;27;20044;-76
2022/05/24 13:59:27;;;;;;;4.82;2.17;;;;;;;;;;5091551;28;20122;-76
2022/05/24 14:01:56;;;;;;;7.05;2.15;;;;;;;;;;5105380;27;20685;-75
2022/05/24 14:04:29;;;;;;;4.05;1.90;;;;;;;;;;5109386;27;20050;-76
2022/05/24 14:07:01;;;;;;;3.58;2.05;;;;;;;;;;5122533;27;20039;-76
2022/05/24 14:09:31;;;;;;;3.55;2.25;;;;;;;;;;5117907;27;20064;-73
2022/05/24 14:12:02;;;;;;;7.50;2.10;;;;;;;;;;5119219;27;20042;-76
2022/05/24 14:14:31;;;;;;;3.78;2.38;;;;;;;;;;5111818;27;20338;-76
2022/05/24 14:16:58;;;;;;;5.07;2.58;;;;;;;;;;5110708;27;20480;-76
2022/05/24 14:19:24;;;;;;;4.63;3.22;;;;;;;;;;5109184;27;20035;-76
2022/05/24 14:21:54;;;;;;;7.10;3.58;;;;;;;;;;5119743;27;20408;-76
2022/05/24 14:24:23;;;;;;;7.43;3.72;;;;;;;;;;5119108;27;20471;-76
2022/05/24 14:26:54;;;;;;;6.70;3.92;;;;;;;;;;5109512;28;20069;-77
2022/05/24 14:29:24;;;;;;;6.10;3.00;;;;;;;;;;5107469;27;20060;-77
2022/05/24 14:31:51;;;;;;;5.57;3.03;;;;;;;;;;5105371;28;20389;-76
2022/05/24 14:34:19;;;;;;;6.07;3.80;;;;;;;;;;5073914;28;20046;-76
2022/05/24 14:36:50;;;;;;;5.40;3.97;;;;;;;;;;5110021;28;20070;-77
2022/05/24 14:39:16;;;;;;;5.47;4.40;;;;;;;;;;5111991;27;20047;-76
2022/05/24 14:41:44;;;;;;;10.88;4.60;;;;;;;;;;5085144;27;20111;-75
2022/05/24 14:44:12;;;;;;;6.50;4.05;;;;;;;;;;5121426;27;20111;-76
2022/05/24 14:46:39;;;;;;;5.97;3.38;;;;;;;;;;5107940;27;20039;-76
2022/05/24 14:49:07;;;;;;;4.30;3.00;;;;;;;;;;5109418;28;20108;-75
2022/05/24 14:51:37;;;;;;;5.88;4.15;;;;;;;;;;5091584;28;20052;-75
2022/05/24 14:54:05;;;;;;;7.55;4.88;;;;;;;;;;5092160;28;20043;-75
2022/05/24 14:56:32;;;;;;;7.32;4.70;;;;;;;;;;5108658;28;20376;-75
2022/05/24 14:58:58;;;;;;;4.68;3.50;;;;;;;;;;5069352;28;20441;-76
2022/05/24 15:01:26;;;;;;;5.85;3.20;;;;;;;;;;5111904;28;20382;-76
2022/05/24 15:03:53;;;;;;;9.13;3.63;;;;;;;;;;5109841;28;20126;-74
2022/05/24 15:06:19;;;;;;;4.63;3.40;;;;;;;;;;5107986;28;20099;-76
2022/05/24 15:17:07;;;;;;;6.75;2.92;;;;;;;;;;5100433;28;20047;-77
2022/05/24 15:19:33;;;;;;;5.25;3.00;;;;;;;;;;5092310;28;20505;-75
2022/05/24 15:21:59;;;;;;;5.65;3.28;;;;;;;;;;5114007;28;20085;-76
2022/05/24 15:24:27;;;;;;;5.95;3.10;;;;;;;;;;5107354;27;20496;-76
2022/05/24 15:26:55;;;;;;;5.43;3.75;;;;;;;;;;5110272;27;20692;-77
2022/05/24 15:29:22;;;;;;;8.15;3.30;;;;;;;;;;5116257;27;20076;-76
2022/05/24 15:31:48;;;;;;;5.15;2.75;;;;;;;;;;5101583;28;20067;-77
2022/05/24 15:34:15;;;;;;;4.70;2.80;;;;;;;;;;5112014;28;20043;-76
2022/05/24 15:36:41;;;;;;;8.82;3.75;;;;;;;;;;5094912;28;20039;-77
2022/05/24 15:39:09;;;;;;;7.03;3.38;;;;;;;;;;5111364;28;20050;-77
2022/05/24 15:41:36;;;;;;;6.38;3.22;;;;;;;;;;5089823;28;20039;-77
2022/05/24 15:44:04;;;;;;;4.93;2.78;;;;;;;;;;5111112;28;20246;-77
2022/05/24 15:46:31;;;;;;;8.88;3.42;;;;;;;;;;5111303;28;20130;-76